No particular awareness of the weather is required.    There are no Weather-warnings


Meteo18 Weather Cam more information Meteo18 Weather Cam


Thunder radar more information blitzortung!


Rain radar more information rain snow radar


Visit our other weather sites:

Template documentation
and downloads

And another site



Weather Underground History page Text

Daily Summary for November 21, 2017 Units:  Metric    English   Both
« Previous Day
Next Day »
Daily Weekly Monthly Yearly Custom
  High: Low: Average:
Temperature: -17.8 °C -15.9 °C -13.9 °C
Dew Point: -17.8 °C -16.2 °C -14.5 °C
Humidity: Humidity % 78 % 92 %
Wind Speed: 0 km/h 0 km/h 3.1 km/h
Wind Gust: 0 km/h - -
Wind:- - SW
Pressure: 0 hPa 34442.4 hPa -
Precipitation: 0 mm    
Historical Graphs
 
 
Tabular Data for November 21, 2017
Time Temperature Dew Point Pressure Wind Wind Speed Wind Gust Humidity Rainfall Rate (Hourly)
-17.8 °C -17.8 °C 0 hPa Calm     Humidity % 0 mm
00:02 -14.3 °C -14.7 °C 34625.2 hPa Calm   12.9 km/h 95 % 0 mm
00:12 -14.3 °C -14.7 °C 34625.2 hPa Calm   5.1 km/h 95 % 0 mm
00:22 -14.4 °C -14.8 °C 34625.2 hPa Calm   5.1 km/h 95 % 0 mm
00:32 -14.3 °C -14.7 °C 34625.2 hPa SSE 2.6 km/h 5.1 km/h 95 % 0 mm
00:52 -14.3 °C -14.6 °C 34611.7 hPa SW 7.7 km/h 12.9 km/h 96 % 0 mm
01:12 -14.1 °C -14.3 °C 34611.7 hPa SSW 5.1 km/h 18.2 km/h 97 % 0 mm
01:17 -14 °C -14.2 °C 34611.7 hPa SW 10.3 km/h 18.2 km/h 97 % 0 mm
01:27 -13.9 °C -14.1 °C 34611.7 hPa SW 7.7 km/h 23.3 km/h 97 % 0 mm
01:32 -13.8 °C -14.1 °C 34611.7 hPa SW 15.6 km/h 23.3 km/h 97 % 0 mm
01:37 -13.8 °C -14 °C 34611.7 hPa West 7.7 km/h 23.3 km/h 97 % 0 mm
01:42 -13.8 °C -14 °C 34611.7 hPa SW 2.6 km/h 23.3 km/h 97 % 0 mm
01:52 -13.7 °C -13.9 °C 34611.7 hPa West 5.1 km/h 23.3 km/h 97 % 0 mm
02:02 -13.7 °C -13.9 °C 34611.7 hPa WSW 2.6 km/h 12.9 km/h 97 % 0 mm
02:07 -13.7 °C -13.9 °C 34611.7 hPa Calm   12.9 km/h 97 % 0 mm
02:17 -13.7 °C -13.9 °C 34611.7 hPa Calm   7.7 km/h 97 % 0 mm
02:22 -13.7 °C -13.9 °C 34611.7 hPa Calm   5.1 km/h 97 % 0 mm
02:32 -13.8 °C -14 °C 34601.5 hPa SSE 2.6 km/h 5.1 km/h 97 % 0 mm
02:37 -13.8 °C -14 °C 34601.5 hPa Calm   5.1 km/h 97 % 0 mm
02:42 -13.7 °C -13.9 °C 34611.7 hPa Calm   5.1 km/h 97 % 0 mm
02:57 -13.7 °C -13.9 °C 34601.5 hPa SW 5.1 km/h 5.1 km/h 97 % 0 mm
03:02 -13.7 °C -13.9 °C 34601.5 hPa WSW 2.6 km/h 7.7 km/h 97 % 0 mm
03:07 -13.7 °C -13.9 °C 34601.5 hPa SW 2.6 km/h 7.7 km/h 97 % 0 mm
03:12 -14 °C -14 °C 34601.5 hPa WSW 10.3 km/h 10.3 km/h 100 % 0 mm
08:47 -15.9 °C -16.2 °C 34591.4 hPa SSW 2.6 km/h 7.7 km/h 97 % 0 mm
08:52 -15.9 °C -16.2 °C 34591.4 hPa SSW 2.6 km/h 7.7 km/h 97 % 0 mm
08:57 -15.9 °C -16.2 °C 34591.4 hPa SSW 2.6 km/h 12.9 km/h 97 % 0 mm
09:02 -15.9 °C -16.1 °C 34591.4 hPa SSW 5.1 km/h 12.9 km/h 97 % 0 mm
09:12 -15.9 °C -16.1 °C 34591.4 hPa South 7.7 km/h 12.9 km/h 97 % 0 mm
09:17 -15.9 °C -16.1 °C 34591.4 hPa SW 5.1 km/h 10.3 km/h 97 % 0 mm
09:22 -15.9 °C -16.2 °C 34591.4 hPa SSW 5.1 km/h 7.7 km/h 97 % 0 mm
09:32 -15.9 °C -16.1 °C 34591.4 hPa SSW 10.3 km/h 10.3 km/h 97 % 0 mm
09:37 -15.9 °C -16.1 °C 34591.4 hPa SW 5.1 km/h 7.7 km/h 97 % 0 mm
09:42 -15.9 °C -16.1 °C 34591.4 hPa SSW 2.6 km/h 10.3 km/h 97 % 0 mm
09:52 -15.8 °C -16 °C 34591.4 hPa SSW 5.1 km/h 10.3 km/h 97 % 0 mm
09:57 -15.8 °C -16 °C 34591.4 hPa WSW 7.7 km/h 7.7 km/h 97 % 0 mm
10:02 -15.8 °C -16 °C 34591.4 hPa SSW 2.6 km/h 7.7 km/h 97 % 0 mm
10:17 -15.7 °C -15.9 °C 34591.4 hPa Calm   10.3 km/h 97 % 0 mm
10:22 -15.7 °C -15.8 °C 34591.4 hPa South 2.6 km/h 10.3 km/h 98 % 0 mm
10:32 -15.6 °C -15.8 °C 34591.4 hPa SSW 7.7 km/h 7.7 km/h 98 % 0 mm
10:42 -15.6 °C -15.8 °C 34577.8 hPa SSW 5.1 km/h 12.9 km/h 97 % 0 mm
10:47 -15.6 °C -15.8 °C 34577.8 hPa Calm   12.9 km/h 97 % 0 mm
10:52 -15.5 °C -15.7 °C 34577.8 hPa SSW 5.1 km/h 12.9 km/h 98 % 0 mm
11:02 -15.5 °C -15.7 °C 34577.8 hPa SW 2.6 km/h 10.3 km/h 97 % 0 mm
11:12 -15.4 °C -15.7 °C 34577.8 hPa Calm   10.3 km/h 97 % 0 mm
11:17 -15.4 °C -15.6 °C 34577.8 hPa SW 2.6 km/h 10.3 km/h 97 % 0 mm
11:22 -15.3 °C -15.6 °C 34577.8 hPa Calm   7.7 km/h 97 % 0 mm
11:42 -15.1 °C -15.2 °C 34577.8 hPa SSE 2.6 km/h 5.1 km/h 98 % 0 mm
11:47 -14.9 °C -15.1 °C 34567.7 hPa SW 2.6 km/h 10.3 km/h 98 % 0 mm
11:52 -14.8 °C -15 °C 34567.7 hPa SSW 7.7 km/h 10.3 km/h 98 % 0 mm
11:57 -14.7 °C -14.8 °C 34567.7 hPa SSW 2.6 km/h 10.3 km/h 98 % 0 mm
12:02 -14.6 °C -14.8 °C 34567.7 hPa SE 2.6 km/h 10.3 km/h 98 % 0 mm
12:12 -14.4 °C -14.6 °C 34554.1 hPa Calm   10.3 km/h 98 % 0 mm
12:32 -13.7 °C -13.9 °C 34544 hPa Calm   7.7 km/h 98 % 0 mm
12:52 -13.2 °C -13.3 °C 34533.8 hPa SSW 2.6 km/h 7.7 km/h 98 % 0 mm
13:02 -12.9 °C -13.1 °C 34533.8 hPa WSW 7.7 km/h 10.3 km/h 98 % 0 mm
13:12 -12.7 °C -12.9 °C 34533.8 hPa SSW 7.7 km/h 12.9 km/h 98 % 0 mm
13:17 -12.6 °C -12.9 °C 34533.8 hPa SW 12.9 km/h 15.6 km/h 97 % 0 mm
13:22 -12.6 °C -12.9 °C 34520.3 hPa South 5.1 km/h 18.2 km/h 96 % 0 mm
13:32 -12.3 °C -12.9 °C 34520.3 hPa WSW 12.9 km/h 18.2 km/h 92 % 0 mm
13:47 -11.8 °C -13.4 °C 34510.1 hPa WSW 10.3 km/h 25.9 km/h 82 % 0 mm
13:52 -11.7 °C -13.4 °C 34510.1 hPa WSW 12.9 km/h 25.9 km/h 81 % 0 mm
13:57 -11.7 °C -13.6 °C 34510.1 hPa SW 10.3 km/h 25.9 km/h 80 % 0 mm
14:02 -11.6 °C -13.2 °C 34510.1 hPa SSW 12.9 km/h 25.9 km/h 82 % 0 mm
14:07 -11.6 °C -13.6 °C 34510.1 hPa SW 12.9 km/h 25.9 km/h 78 % 0 mm
14:12 -11.5 °C -13.6 °C 34510.1 hPa West 12.9 km/h 25.9 km/h 78 % 0 mm
14:22 -11.6 °C -13.6 °C 34510.1 hPa SW 10.3 km/h 25.9 km/h 78 % 0 mm
14:32 -11.6 °C -13.6 °C 34510.1 hPa West 5.1 km/h 25.9 km/h 78 % 0 mm
14:42 -11.5 °C -13.6 °C 34496.6 hPa SW 7.7 km/h 10.3 km/h 78 % 0 mm
15:02 -11.4 °C -13.4 °C 34496.6 hPa WSW 7.7 km/h 15.6 km/h 79 % 0 mm
15:12 -11.6 °C -13.4 °C 34496.6 hPa SSW 5.1 km/h 15.6 km/h 80 % 0 mm
15:22 -11.6 °C -13.2 °C 34486.4 hPa SW 5.1 km/h 15.6 km/h 83 % 0 mm
15:27 -11.7 °C -13.2 °C 34486.4 hPa WSW 2.6 km/h 12.9 km/h 83 % 0 mm
15:32 -11.7 °C -13.4 °C 34496.6 hPa SW 2.6 km/h 7.7 km/h 82 % 0 mm
15:37 -11.7 °C -13.4 °C 34486.4 hPa WSW 2.6 km/h 7.7 km/h 81 % 0 mm
15:42 -11.7 °C -13.4 °C 34486.4 hPa SW 7.7 km/h 7.7 km/h 81 % 0 mm
15:47 -11.7 °C -13.4 °C 34486.4 hPa SW 2.6 km/h 7.7 km/h 81 % 0 mm
15:52 -11.7 °C -13.4 °C 34486.4 hPa SW 5.1 km/h 7.7 km/h 82 % 0 mm
15:57 -11.8 °C -13.4 °C 34486.4 hPa WSW 2.6 km/h 7.7 km/h 82 % 0 mm
16:02 -11.8 °C -13.4 °C 34496.6 hPa WSW 2.6 km/h 7.7 km/h 82 % 0 mm
16:12 -11.8 °C -13.5 °C 34486.4 hPa SW 2.6 km/h 10.3 km/h 81 % 0 mm
16:17 -11.8 °C -13.4 °C 34486.4 hPa SSW 2.6 km/h 10.3 km/h 82 % 0 mm
16:27 -11.9 °C -13.5 °C 34486.4 hPa SW 2.6 km/h 7.7 km/h 83 % 0 mm
16:32 -12.1 °C -13.5 °C 34486.4 hPa Calm   5.1 km/h 84 % 0 mm
16:37 -12.1 °C -13.4 °C 34486.4 hPa Calm   5.1 km/h 85 % 0 mm
16:42 -12.2 °C -13.4 °C 34476.3 hPa Calm   2.6 km/h 86 % 0 mm
16:47 -12.3 °C -13.6 °C 34476.3 hPa Calm   2.6 km/h 86 % 0 mm
16:52 -12.4 °C -13.6 °C 34476.3 hPa Calm   2.6 km/h 87 % 0 mm
17:02 -12.6 °C -13.7 °C 34476.3 hPa Calm   2.6 km/h 88 % 0 mm
17:12 -12.8 °C -13.7 °C 34476.3 hPa SW 2.6 km/h 2.6 km/h 90 % 0 mm
17:17 -12.8 °C -13.7 °C 34476.3 hPa Calm   2.6 km/h 90 % 0 mm
17:22 -12.8 °C -13.7 °C 34462.7 hPa Calm   5.1 km/h 89 % 0 mm
17:37 -12.9 °C -13.9 °C 34462.7 hPa Calm   5.1 km/h 89 % 0 mm
17:42 -12.9 °C -13.8 °C 34476.3 hPa Calm   2.6 km/h 90 % 0 mm
17:57 -12.9 °C -13.7 °C 34476.3 hPa Calm   2.6 km/h 91 % 0 mm
18:02 -12.9 °C -13.8 °C 34476.3 hPa Calm   2.6 km/h 90 % 0 mm
18:07 -13.2 °C -14 °C 34462.7 hPa Calm   5.1 km/h 90 % 0 mm
18:17 -13.4 °C -14.2 °C 34462.7 hPa Calm   5.1 km/h 91 % 0 mm
18:22 -13.4 °C -14.2 °C 34476.3 hPa Calm   7.7 km/h 91 % 0 mm
18:27 -13.6 °C -14.3 °C 34476.3 hPa Calm   7.7 km/h 92 % 0 mm
18:52 -13.6 °C -14.3 °C 34462.7 hPa Calm   5.1 km/h 92 % 0 mm
19:02 -13.8 °C -14.4 °C 34476.3 hPa WNW 5.1 km/h 5.1 km/h 93 % 0 mm
19:07 -13.8 °C -14.4 °C 34476.3 hPa NNE 2.6 km/h 5.1 km/h 93 % 0 mm
19:17 -13.8 °C -14.2 °C 34462.7 hPa Calm   7.7 km/h 95 % 0 mm
19:22 -13.7 °C -14.1 °C 34462.7 hPa Calm   7.7 km/h 95 % 0 mm
19:27 -13.8 °C -14.3 °C 34462.7 hPa Calm   5.1 km/h 94 % 0 mm
19:37 -14 °C -14.6 °C 34462.7 hPa Calm   2.6 km/h 93 % 0 mm
19:42 -14.1 °C -14.6 °C 34462.7 hPa Calm     94 % 0 mm
19:47 -14.2 °C -14.7 °C 34462.7 hPa Calm   2.6 km/h 94 % 0 mm
19:57 -14.3 °C -14.8 °C 34462.7 hPa Calm   2.6 km/h 94 % 0 mm
20:02 -14.4 °C -14.9 °C 34462.7 hPa Calm   2.6 km/h 94 % 0 mm
20:07 -14.3 °C -14.7 °C 34462.7 hPa Calm   2.6 km/h 95 % 0 mm
20:17 -14.3 °C -14.7 °C 34462.7 hPa Calm   2.6 km/h 95 % 0 mm
20:22 -14.4 °C -14.8 °C 34462.7 hPa Calm   2.6 km/h 95 % 0 mm
20:32 -14.6 °C -14.9 °C 34462.7 hPa Calm   2.6 km/h 95 % 0 mm
20:42 -14.2 °C -14.4 °C 34452.6 hPa Calm   2.6 km/h 97 % 0 mm
20:47 -14.1 °C -14.4 °C 34462.7 hPa Calm   2.6 km/h 96 % 0 mm
20:57 -14.2 °C -14.7 °C 34462.7 hPa Calm   5.1 km/h 94 % 0 mm
21:12 -14.8 °C -15.3 °C 34452.6 hPa Calm   2.6 km/h 94 % 0 mm
21:17 -14.9 °C -15.4 °C 34452.6 hPa Calm   2.6 km/h 94 % 0 mm
21:22 -15 °C -15.5 °C 34452.6 hPa Calm     94 % 0 mm
21:32 -15.1 °C -15.4 °C 34452.6 hPa Calm     95 % 0 mm
21:52 -15.1 °C -15.4 °C 34452.6 hPa Calm     96 % 0 mm
22:02 -15.1 °C -15.4 °C 34452.6 hPa Calm     96 % 0 mm
22:12 -15.1 °C -15.4 °C 34452.6 hPa Calm     96 % 0 mm
22:22 -15.2 °C -15.6 °C 34452.6 hPa Calm     96 % 0 mm
22:42 -15.3 °C -15.6 °C 34452.6 hPa Calm     96 % 0 mm
22:57 -15.4 °C -15.8 °C 34442.4 hPa Calm   2.6 km/h 96 % 0 mm
23:02 -15.6 °C -15.9 °C 34442.4 hPa Calm   2.6 km/h 96 % 0 mm
23:12 -15.7 °C -16 °C 34442.4 hPa Calm   2.6 km/h 96 % 0 mm
23:32 -15.6 °C -15.8 °C 34442.4 hPa Calm   2.6 km/h 97 % 0 mm
23:42 -15.6 °C -15.8 °C 34442.4 hPa SSW 2.6 km/h 2.6 km/h 97 % 0 mm
23:52 -15.6 °C -15.8 °C 34442.4 hPa Calm   2.6 km/h 97 % 0 mm
Meteo18
Compliments of Weather Underground - 4 mb

Script developed by  Jim McMurry - jmcmurry@mwt.net Adapted for the template by  Wim van der Kuil - Leuven-Template.eu

You find our weather info also at:

European Weather Network

Weather Underground

Equipment we use:

Weather-station
Davis Vue

Weather-program
Meteobridge

Weather-server
Raspberry PI 2 B+

Provider
1 and 1

Davis Vue

Meteobridge

Raspberry PI 2 B+

1 and 1